Time;durP1;ratioP1;P1;durP2;ratioP2;P2;SDS_P1;SDS_P2;PMS_P1;PMS_P2;Temp;Humidity;BMP_temperature;BMP_pressure;BME280_temperature;BME280_humidity;BME280_pressure;Samples;Min_cycle;Max_cycle;Signal;HPM_P1;HPM_P2
2020/12/18 00:01:36;;;;;;;17.00;7.20;;;2.70;99.10;;;;;;6231553;28;20466;-78
2020/12/18 00:04:37;;;;;;;11.33;8.80;;;2.70;99.20;;;;;;6239969;28;20046;-77
2020/12/18 00:07:39;;;;;;;13.83;9.50;;;2.60;99.10;;;;;;6233893;28;20134;-77
2020/12/18 00:10:40;;;;;;;13.63;9.53;;;2.60;99.20;;;;;;6241714;28;20053;-77
2020/12/18 00:13:42;;;;;;;12.13;8.93;;;2.60;99.40;;;;;;6228085;28;20129;-77
2020/12/18 00:16:44;;;;;;;14.47;7.40;;;2.70;99.40;;;;;;6236205;28;20050;-77
2020/12/18 00:19:45;;;;;;;12.83;7.83;;;2.60;99.30;;;;;;6242913;28;20053;-77
2020/12/18 00:22:47;;;;;;;11.30;8.13;;;2.60;99.20;;;;;;6227639;28;20146;-77
2020/12/18 00:25:49;;;;;;;16.80;9.50;;;2.50;99.10;;;;;;6231525;28;20388;-77
2020/12/18 00:28:51;;;;;;;16.47;9.33;;;2.50;99.10;;;;;;6238330;28;20057;-77
2020/12/18 00:31:53;;;;;;;12.27;9.43;;;2.40;99.10;;;;;;6231408;28;20037;-76
2020/12/18 00:34:54;;;;;;;9.90;8.20;;;2.40;99.10;;;;;;6225833;28;20081;-77
2020/12/18 00:37:55;;;;;;;11.17;8.33;;;2.30;99.10;;;;;;6235550;28;20065;-77
2020/12/18 00:40:57;;;;;;;10.87;8.87;;;2.30;99.10;;;;;;6231374;28;20523;-77
2020/12/18 00:43:58;;;;;;;12.60;9.53;;;2.30;99.20;;;;;;6236201;28;20034;-77
2020/12/18 00:47:00;;;;;;;12.83;10.37;;;2.30;99.00;;;;;;6234988;28;20068;-77
2020/12/18 00:50:01;;;;;;;15.50;10.40;;;2.20;99.00;;;;;;6239098;28;20423;-77
2020/12/18 00:53:04;;;;;;;11.37;10.07;;;2.20;99.10;;;;;;6231231;28;20602;-77
2020/12/18 00:56:07;;;;;;;10.67;9.33;;;2.20;99.10;;;;;;6223592;28;20045;-77
2020/12/18 00:59:09;;;;;;;9.60;8.03;;;2.10;99.00;;;;;;6232386;28;20042;-77
2020/12/18 01:02:11;;;;;;;9.90;8.63;;;2.10;98.90;;;;;;6235816;28;20065;-77
2020/12/18 01:05:12;;;;;;;15.47;8.17;;;2.00;98.80;;;;;;6232246;28;20301;-77
2020/12/18 01:08:14;;;;;;;11.50;8.60;;;2.00;98.90;;;;;;6236380;28;20075;-77
2020/12/18 01:11:15;;;;;;;10.43;8.30;;;2.00;98.80;;;;;;6251729;22;20045;-74
2020/12/18 01:14:17;;;;;;;9.73;7.33;;;1.90;98.80;;;;;;6233494;28;20061;-74
2020/12/18 01:17:20;;;;;;;9.83;7.30;;;1.80;98.70;;;;;;6231158;28;20049;-75
2020/12/18 01:20:21;;;;;;;9.17;7.03;;;1.70;98.70;;;;;;6233305;28;20061;-75
2020/12/18 01:23:22;;;;;;;15.80;7.40;;;1.70;98.90;;;;;;6232061;28;20048;-75
2020/12/18 01:26:24;;;;;;;11.60;8.93;;;1.60;98.80;;;;;;6232980;28;20411;-75
2020/12/18 01:29:25;;;;;;;7.73;6.93;;;1.60;98.90;;;;;;6232276;28;20057;-74
2020/12/18 01:32:28;;;;;;;10.00;6.77;;;1.60;99.00;;;;;;6231564;28;20050;-75
2020/12/18 01:35:29;;;;;;;12.30;6.83;;;1.60;99.10;;;;;;6230330;28;20056;-75
2020/12/18 01:38:31;;;;;;;9.30;6.80;;;1.60;99.00;;;;;;6231569;28;20053;-76
2020/12/18 01:41:33;;;;;;;8.90;6.87;;;1.50;99.00;;;;;;6230383;28;20077;-74
2020/12/18 01:44:34;;;;;;;10.70;7.40;;;1.50;99.00;;;;;;6233437;28;20466;-75
2020/12/18 01:47:37;;;;;;;8.60;7.70;;;1.50;99.10;;;;;;6229628;28;20076;-75
2020/12/18 01:50:39;;;;;;;9.87;6.43;;;1.50;99.10;;;;;;6227638;28;20108;-75
2020/12/18 01:53:41;;;;;;;11.27;7.17;;;1.50;99.00;;;;;;6231794;28;20804;-74
2020/12/18 01:56:42;;;;;;;10.57;7.90;;;1.60;98.90;;;;;;6231506;28;20511;-74
2020/12/18 01:59:44;;;;;;;9.93;7.73;;;1.50;99.10;;;;;;6231137;28;20042;-75
2020/12/18 02:02:46;;;;;;;7.93;6.77;;;1.50;99.20;;;;;;6231481;28;20092;-75
2020/12/18 02:05:47;;;;;;;12.67;7.93;;;1.60;99.00;;;;;;6233352;28;20045;-74
2020/12/18 02:08:49;;;;;;;8.33;7.43;;;1.50;99.00;;;;;;6256878;28;20056;-75
2020/12/18 02:11:54;;;;;;;9.80;6.57;;;1.50;99.20;;;;;;6235512;28;20049;-75
2020/12/18 02:14:55;;;;;;;10.67;8.77;;;1.50;99.10;;;;;;6233534;28;20052;-75
2020/12/18 02:17:59;;;;;;;8.97;6.40;;;1.50;99.00;;;;;;6231547;28;20492;-75
2020/12/18 02:21:03;;;;;;;9.80;7.23;;;1.40;99.00;;;;;;6236738;28;20141;-75
2020/12/18 02:24:04;;;;;;;9.13;6.60;;;1.40;99.00;;;;;;6236264;28;20057;-75
2020/12/18 02:27:06;;;;;;;6.43;5.77;;;1.40;99.10;;;;;;6235334;28;20041;-75
2020/12/18 02:30:09;;;;;;;13.90;8.83;;;1.30;99.10;;;;;;6237262;28;20050;-75
2020/12/18 02:33:10;;;;;;;10.57;7.97;;;1.30;99.10;;;;;;6234779;28;20055;-75
2020/12/18 02:36:13;;;;;;;9.73;8.03;;;1.30;99.30;;;;;;6236542;28;20038;-75
2020/12/18 02:39:14;;;;;;;10.37;7.13;;;1.30;99.30;;;;;;6233970;28;20128;-75
2020/12/18 02:42:16;;;;;;;9.37;7.43;;;1.30;99.30;;;;;;6236847;28;20046;-75
2020/12/18 02:45:17;;;;;;;10.40;9.40;;;1.30;99.30;;;;;;6231543;28;20076;-75
2020/12/18 02:48:19;;;;;;;12.80;8.13;;;1.30;99.20;;;;;;6234258;28;20507;-75
2020/12/18 02:51:20;;;;;;;12.50;9.37;;;1.30;99.20;;;;;;6233516;28;20569;-75
2020/12/18 02:54:22;;;;;;;11.00;7.13;;;1.20;99.10;;;;;;6235591;28;20048;-74
2020/12/18 02:57:24;;;;;;;10.57;7.97;;;1.20;99.10;;;;;;6234251;28;20054;-75
2020/12/18 03:00:25;;;;;;;8.10;7.33;;;1.20;99.00;;;;;;6234705;28;20073;-74
2020/12/18 03:03:26;;;;;;;10.30;6.47;;;1.10;99.10;;;;;;6234530;28;20045;-74
2020/12/18 03:06:28;;;;;;;9.97;7.20;;;1.10;99.10;;;;;;6234956;28;20054;-74
2020/12/18 03:09:29;;;;;;;8.97;6.40;;;1.10;99.00;;;;;;6233792;28;20050;-74
2020/12/18 03:12:31;;;;;;;7.23;6.07;;;1.10;99.00;;;;;;6234481;28;20079;-75
2020/12/18 03:15:32;;;;;;;7.77;5.27;;;1.00;99.10;;;;;;6235914;28;20072;-75
2020/12/18 03:18:34;;;;;;;8.90;6.00;;;1.00;99.20;;;;;;6235106;28;20542;-76
2020/12/18 03:21:35;;;;;;;12.83;7.80;;;1.00;99.30;;;;;;6233380;28;20053;-74
2020/12/18 03:24:36;;;;;;;11.63;6.50;;;1.00;99.40;;;;;;6230897;28;20054;-74
2020/12/18 03:27:38;;;;;;;8.73;6.73;;;1.00;99.30;;;;;;6234171;28;20125;-75
2020/12/18 03:30:40;;;;;;;10.07;6.50;;;1.00;99.20;;;;;;6232886;28;20046;-75
2020/12/18 03:33:41;;;;;;;12.80;9.10;;;1.00;99.10;;;;;;6235163;28;20124;-75
2020/12/18 03:36:43;;;;;;;11.57;8.33;;;0.90;99.10;;;;;;6233696;28;20054;-75
2020/12/18 03:39:44;;;;;;;7.73;6.17;;;0.90;99.10;;;;;;6233698;28;20514;-75
2020/12/18 03:42:46;;;;;;;9.03;6.73;;;0.90;99.10;;;;;;6243968;28;20072;-74
2020/12/18 03:45:47;;;;;;;17.03;7.60;;;0.80;99.00;;;;;;6255705;28;20135;-75
2020/12/18 03:48:49;;;;;;;8.87;7.97;;;0.80;99.00;;;;;;6234278;28;20049;-75
2020/12/18 03:51:50;;;;;;;14.17;7.10;;;0.70;99.10;;;;;;6232667;28;20115;-74
2020/12/18 03:54:51;;;;;;;11.50;9.13;;;0.80;99.20;;;;;;6234271;28;20491;-75
2020/12/18 03:57:54;;;;;;;10.73;7.23;;;0.80;99.20;;;;;;6232780;28;20095;-74
2020/12/18 04:00:55;;;;;;;9.37;6.23;;;0.80;99.30;;;;;;6234225;28;20049;-75
2020/12/18 04:03:56;;;;;;;10.90;7.33;;;0.80;99.40;;;;;;6229781;28;20054;-75
2020/12/18 04:06:57;;;;;;;6.80;5.93;;;0.80;99.40;;;;;;6233677;28;20042;-74
2020/12/18 04:09:59;;;;;;;13.50;8.33;;;0.70;99.20;;;;;;6231161;28;20056;-75
2020/12/18 04:13:01;;;;;;;8.67;6.50;;;0.70;99.20;;;;;;6234812;28;20067;-75
2020/12/18 04:16:03;;;;;;;8.17;7.13;;;0.70;99.20;;;;;;6232489;28;20041;-75
2020/12/18 04:19:04;;;;;;;9.27;6.53;;;0.70;99.50;;;;;;6244411;28;20049;-75
2020/12/18 04:22:05;;;;;;;8.73;6.17;;;0.70;99.50;;;;;;6258568;28;20072;-74
2020/12/18 04:25:07;;;;;;;9.00;5.73;;;0.80;99.40;;;;;;6258060;28;20132;-74
2020/12/18 04:28:09;;;;;;;9.63;6.60;;;0.70;99.30;;;;;;6259586;28;20037;-74
2020/12/18 04:31:10;;;;;;;8.97;7.00;;;0.70;99.40;;;;;;6257709;28;20703;-74
2020/12/18 04:34:11;;;;;;;9.90;6.17;;;0.70;99.40;;;;;;6258715;28;20045;-75
2020/12/18 04:37:13;;;;;;;13.80;8.47;;;0.70;99.50;;;;;;6256817;28;20072;-75
2020/12/18 04:40:14;;;;;;;17.90;10.53;;;0.70;99.60;;;;;;6255906;28;20521;-74
2020/12/18 04:43:16;;;;;;;17.93;9.60;;;0.70;99.50;;;;;;6259052;28;20531;-75
2020/12/18 04:46:19;;;;;;;27.37;9.23;;;0.70;99.40;;;;;;6253025;28;20067;-74
2020/12/18 04:49:21;;;;;;;14.83;9.80;;;0.70;99.60;;;;;;6258682;28;20139;-75
2020/12/18 04:52:23;;;;;;;14.07;7.80;;;0.80;99.60;;;;;;6256672;28;20130;-74
2020/12/18 04:55:28;;;;;;;15.03;7.87;;;0.70;99.60;;;;;;6256282;28;20048;-74
2020/12/18 04:58:31;;;;;;;13.17;8.00;;;0.70;99.50;;;;;;6256157;28;20060;-74
2020/12/18 05:01:32;;;;;;;15.97;9.27;;;0.70;99.70;;;;;;6257339;28;20078;-74
2020/12/18 05:04:39;;;;;;;12.90;6.83;;;0.70;99.70;;;;;;6256497;28;20059;-75
2020/12/18 05:07:41;;;;;;;14.07;8.50;;;0.60;99.70;;;;;;6254413;28;20072;-75
2020/12/18 05:10:42;;;;;;;14.93;7.60;;;0.70;99.70;;;;;;6257372;28;20045;-75
2020/12/18 05:13:44;;;;;;;10.40;8.17;;;0.60;99.70;;;;;;6256245;28;20046;-74
2020/12/18 05:16:47;;;;;;;12.80;8.40;;;0.60;99.60;;;;;;6256330;28;20049;-75
2020/12/18 05:19:52;;;;;;;11.73;9.07;;;0.60;99.70;;;;;;6255659;28;20049;-75
2020/12/18 05:22:54;;;;;;;12.63;8.23;;;0.70;99.90;;;;;;6255396;28;20056;-75
2020/12/18 05:25:56;;;;;;;18.00;10.37;;;0.70;99.70;;;;;;6257911;28;20051;-74
2020/12/18 05:29:08;;;;;;;13.00;8.57;;;0.70;99.80;;;;;;6252973;28;20144;-74
2020/12/18 05:32:13;;;;;;;17.53;10.93;;;0.70;99.70;;;;;;6254855;28;20052;-75
2020/12/18 05:35:17;;;;;;;22.37;11.93;;;0.70;99.70;;;;;;6257547;28;20065;-74
2020/12/18 05:38:18;;;;;;;16.37;11.60;;;0.70;99.80;;;;;;6242959;28;20094;-74
2020/12/18 05:41:22;;;;;;;15.00;10.17;;;0.70;99.80;;;;;;6257212;28;20067;-74
2020/12/18 05:44:25;;;;;;;13.33;9.40;;;0.70;99.80;;;;;;6253633;28;20052;-74
2020/12/18 05:47:27;;;;;;;17.03;10.07;;;0.70;99.70;;;;;;6255361;28;20041;-75
2020/12/18 05:50:30;;;;;;;15.30;10.17;;;0.60;99.70;;;;;;6256276;28;20572;-74
2020/12/18 05:53:31;;;;;;;11.23;8.43;;;0.60;99.70;;;;;;6255110;28;20045;-74
2020/12/18 05:56:33;;;;;;;13.60;10.30;;;0.70;99.90;;;;;;6257018;28;20064;-74
2020/12/18 05:59:41;;;;;;;76.37;16.13;;;0.70;99.80;;;;;;6253720;28;20045;-75
2020/12/18 06:02:44;;;;;;;40.55;14.40;;;0.70;99.90;;;;;;6255149;28;20037;-75
2020/12/18 06:05:46;;;;;;;22.37;11.73;;;0.70;99.90;;;;;;6255691;28;20050;-75
2020/12/18 06:08:55;;;;;;;43.40;15.73;;;0.70;99.80;;;;;;6255799;28;20120;-75
2020/12/18 06:11:57;;;;;;;45.70;15.07;;;0.70;99.90;;;;;;6253818;28;20449;-75
2020/12/18 06:15:00;;;;;;;43.40;14.43;;;0.80;99.90;;;;;;6254762;28;20415;-75
2020/12/18 06:18:04;;;;;;;23.93;14.77;;;0.70;99.90;;;;;;6256405;28;20084;-74
2020/12/18 06:21:11;;;;;;;65.27;16.50;;;0.70;99.90;;;;;;6255750;28;20171;-75
2020/12/18 06:24:13;;;;;;;24.95;12.32;;;0.80;99.90;;;;;;6256449;28;20133;-75
2020/12/18 06:27:16;;;;;;;31.07;15.50;;;0.70;99.90;;;;;;6254440;28;20183;-74
2020/12/18 06:30:18;;;;;;;44.50;16.77;;;0.70;99.90;;;;;;6251355;28;20064;-76
2020/12/18 06:33:26;;;;;;;27.53;14.87;;;0.70;99.90;;;;;;6254849;28;20042;-75
2020/12/18 06:36:58;;;;;;;80.50;20.50;;;0.70;99.90;;;;;;6254724;28;20065;-75
2020/12/18 06:40:00;;;;;;;81.33;21.00;;;0.80;99.90;;;;;;6251297;28;20049;-75
2020/12/18 06:43:01;;;;;;;55.00;19.63;;;0.80;99.90;;;;;;6256731;28;20660;-75
2020/12/18 06:46:07;;;;;;;51.47;16.37;;;0.80;99.90;;;;;;6254872;28;20041;-75
2020/12/18 06:49:08;;;;;;;115.57;25.17;;;0.90;99.90;;;;;;6255366;28;20049;-75
2020/12/18 06:52:09;;;;;;;90.90;21.87;;;0.90;99.90;;;;;;6256187;28;20110;-74
2020/12/18 06:55:13;;;;;;;72.87;24.07;;;1.00;99.90;;;;;;6255830;28;20112;-75
2020/12/18 06:58:18;;;;;;;61.50;19.70;;;1.10;99.90;;;;;;6253708;28;20068;-75
2020/12/18 07:01:31;;;;;;;51.23;24.10;;;1.10;99.90;;;;;;6252263;28;20049;-75
2020/12/18 07:04:40;;;;;;;57.93;25.13;;;1.10;99.90;;;;;;6243451;28;20041;-75
2020/12/18 07:07:41;;;;;;;43.97;24.00;;;1.20;99.90;;;;;;6224392;28;20096;-75
2020/12/18 07:10:45;;;;;;;52.93;24.60;;;1.40;99.90;;;;;;6201923;28;20050;-75
2020/12/18 07:13:49;;;;;;;46.63;23.70;;;1.50;99.90;;;;;;6240204;23;20128;-76
2020/12/18 07:16:56;;;;;;;37.40;23.07;;;1.50;99.90;;;;;;6222136;28;20052;-76
2020/12/18 07:19:58;;;;;;;27.20;17.40;;;1.50;99.90;;;;;;6242588;28;20052;-76
2020/12/18 07:22:59;;;;;;;41.30;19.50;;;1.50;99.90;;;;;;6227988;28;20662;-76
2020/12/18 07:26:02;;;;;;;17.43;13.37;;;1.40;99.90;;;;;;6215588;28;20487;-76
2020/12/18 07:29:03;;;;;;;18.67;13.33;;;1.40;99.90;;;;;;6221758;28;20133;-76
2020/12/18 07:32:06;;;;;;;20.90;13.10;;;1.40;99.90;;;;;;6215282;28;20042;-76
2020/12/18 07:35:08;;;;;;;23.33;13.80;;;1.40;99.90;;;;;;6215534;28;20129;-76
2020/12/18 07:38:18;;;;;;;30.23;14.63;;;1.40;99.90;;;;;;6213023;28;20133;-76
2020/12/18 07:41:19;;;;;;;23.73;15.10;;;1.40;99.90;;;;;;6213093;28;20507;-76
2020/12/18 07:44:20;;;;;;;37.87;14.43;;;1.40;99.90;;;;;;6212450;28;20671;-76
2020/12/18 07:47:23;;;;;;;49.60;20.07;;;1.40;99.90;;;;;;6215159;28;20057;-76
2020/12/18 07:50:24;;;;;;;38.10;14.10;;;1.40;99.90;;;;;;6216810;28;20451;-76
2020/12/18 07:53:27;;;;;;;28.33;15.30;;;1.50;99.90;;;;;;6204237;28;20512;-76
2020/12/18 07:56:28;;;;;;;36.03;14.13;;;1.50;99.90;;;;;;6203118;28;20054;-76
2020/12/18 07:59:29;;;;;;;25.20;14.40;;;1.60;99.90;;;;;;6217093;28;20041;-76
2020/12/18 08:02:32;;;;;;;29.67;12.83;;;1.60;99.90;;;;;;6207318;28;20050;-76
2020/12/18 08:05:33;;;;;;;26.80;12.93;;;1.70;99.90;;;;;;6208832;28;20041;-76
2020/12/18 08:08:34;;;;;;;22.33;10.47;;;1.70;99.90;;;;;;6215288;28;20145;-76
2020/12/18 08:11:37;;;;;;;30.97;14.90;;;1.70;99.90;;;;;;6214145;28;20045;-76
2020/12/18 08:14:38;;;;;;;31.10;11.07;;;1.90;99.90;;;;;;6209052;28;20407;-76
2020/12/18 08:17:41;;;;;;;34.63;13.90;;;2.00;99.90;;;;;;6215149;28;20081;-76
2020/12/18 08:20:44;;;;;;;22.27;13.90;;;1.80;99.90;;;;;;6206948;28;20113;-77
2020/12/18 08:23:50;;;;;;;32.03;13.33;;;1.80;99.90;;;;;;6208947;28;20042;-76
2020/12/18 08:26:56;;;;;;;16.50;11.77;;;1.90;99.90;;;;;;6211115;28;20038;-76
2020/12/18 08:29:58;;;;;;;22.83;12.17;;;1.90;99.90;;;;;;6206170;28;20087;-76
2020/12/18 08:33:02;;;;;;;21.50;12.63;;;1.90;99.90;;;;;;6213819;28;20124;-77
2020/12/18 08:36:05;;;;;;;22.73;14.10;;;1.90;99.90;;;;;;6226886;28;20160;-76
2020/12/18 08:39:08;;;;;;;25.23;13.77;;;1.90;99.90;;;;;;6225251;28;20049;-77
2020/12/18 08:42:09;;;;;;;32.47;14.03;;;1.90;99.90;;;;;;6213291;28;20052;-77
2020/12/18 08:45:10;;;;;;;24.40;14.87;;;2.00;99.90;;;;;;6211754;28;20078;-76
2020/12/18 08:48:19;;;;;;;43.73;20.80;;;2.00;99.90;;;;;;6215701;28;20104;-77
2020/12/18 08:51:21;;;;;;;27.00;15.10;;;2.10;99.90;;;;;;6207655;28;20042;-76
2020/12/18 08:54:28;;;;;;;18.60;15.17;;;2.30;99.90;;;;;;6207605;28;20045;-76
2020/12/18 08:57:30;;;;;;;19.17;13.40;;;2.40;99.90;;;;;;6207710;28;20491;-76
2020/12/18 09:00:32;;;;;;;24.67;12.10;;;2.50;99.90;;;;;;6232125;28;20454;-77
2020/12/18 09:03:41;;;;;;;20.67;13.53;;;2.60;99.90;;;;;;6229404;28;20049;-77
2020/12/18 09:06:50;;;;;;;19.10;12.57;;;2.80;99.90;;;;;;6224040;28;20172;-77
2020/12/18 09:09:54;;;;;;;15.70;9.97;;;2.90;99.90;;;;;;6215889;28;20042;-77
2020/12/18 09:12:55;;;;;;;16.97;10.53;;;3.00;99.80;;;;;;6216022;28;20053;-77
2020/12/18 09:16:04;;;;;;;12.27;9.67;;;3.00;99.20;;;;;;6210940;28;20061;-77
2020/12/18 09:19:06;;;;;;;14.57;8.30;;;2.90;99.10;;;;;;6212973;28;20042;-77
2020/12/18 09:22:08;;;;;;;24.10;11.27;;;2.80;99.00;;;;;;6213045;28;20132;-77
2020/12/18 09:25:09;;;;;;;12.23;8.90;;;2.80;99.00;;;;;;6211822;28;20042;-77
2020/12/18 09:28:13;;;;;;;23.63;9.13;;;2.80;98.90;;;;;;6210434;28;20042;-77
2020/12/18 09:31:14;;;;;;;19.93;10.83;;;2.80;98.90;;;;;;6202697;28;20488;-77
2020/12/18 09:34:17;;;;;;;23.70;9.53;;;2.80;99.00;;;;;;6214087;28;20124;-76
2020/12/18 09:37:18;;;;;;;31.90;10.60;;;2.80;98.80;;;;;;6232779;28;20140;-76
2020/12/18 09:40:19;;;;;;;18.73;10.00;;;2.80;98.90;;;;;;6242668;28;20053;-77
2020/12/18 09:43:21;;;;;;;16.47;8.87;;;2.80;98.80;;;;;;6236866;28;20269;-76
2020/12/18 09:46:23;;;;;;;14.33;8.93;;;2.90;98.90;;;;;;6234272;28;20056;-77
2020/12/18 09:49:25;;;;;;;15.77;9.03;;;2.90;98.90;;;;;;6237296;28;20052;-77
2020/12/18 09:52:26;;;;;;;15.27;8.97;;;3.00;98.70;;;;;;6229286;28;20054;-76
2020/12/18 09:55:28;;;;;;;12.23;7.63;;;3.10;98.80;;;;;;6234104;28;20453;-76
2020/12/18 09:58:29;;;;;;;11.83;7.03;;;3.20;98.60;;;;;;6235658;28;20831;-76
2020/12/18 10:01:30;;;;;;;15.03;7.43;;;3.30;98.40;;;;;;6236203;28;20103;-76
2020/12/18 10:04:33;;;;;;;8.13;7.17;;;3.50;97.90;;;;;;6236387;28;20060;-77
2020/12/18 10:07:34;;;;;;;7.82;5.78;;;3.60;97.60;;;;;;6231316;28;20169;-76
2020/12/18 10:10:35;;;;;;;16.17;7.57;;;3.70;97.50;;;;;;6229161;28;20128;-77
2020/12/18 10:13:37;;;;;;;11.95;8.93;;;3.90;97.20;;;;;;6233423;28;20057;-77
2020/12/18 10:16:38;;;;;;;9.15;6.90;;;4.00;96.70;;;;;;6234160;28;20046;-76
2020/12/18 10:19:40;;;;;;;7.68;4.45;;;4.10;96.50;;;;;;6231305;28;20535;-76
2020/12/18 10:22:42;;;;;;;10.20;7.30;;;4.10;96.60;;;;;;6232304;28;20038;-77
2020/12/18 10:25:43;;;;;;;7.93;6.30;;;4.30;96.40;;;;;;6239505;28;20174;-76
2020/12/18 10:28:44;;;;;;;9.25;5.55;;;4.30;95.70;;;;;;6237500;28;20560;-76
2020/12/18 10:31:46;;;;;;;6.70;5.70;;;4.40;95.60;;;;;;6236161;28;20094;-76
2020/12/18 10:34:48;;;;;;;8.65;6.65;;;4.40;95.40;;;;;;6237140;28;20550;-76
2020/12/18 10:37:50;;;;;;;8.15;6.65;;;4.40;95.00;;;;;;6238477;28;20056;-76
2020/12/18 10:40:52;;;;;;;11.25;7.50;;;4.40;95.40;;;;;;6234829;28;20049;-76
2020/12/18 10:43:53;;;;;;;9.52;6.60;;;4.40;95.20;;;;;;6238071;28;20121;-76
2020/12/18 10:46:54;;;;;;;10.45;7.00;;;4.40;95.10;;;;;;6235393;28;20049;-75
2020/12/18 10:49:56;;;;;;;14.23;7.20;;;4.40;95.40;;;;;;6240982;28;20718;-75
2020/12/18 10:53:00;;;;;;;37.13;9.02;;;4.50;95.30;;;;;;6242302;28;20517;-75
2020/12/18 10:56:02;;;;;;;19.13;7.63;;;4.50;95.40;;;;;;6241510;28;20042;-75
2020/12/18 10:59:03;;;;;;;10.18;7.20;;;4.50;95.50;;;;;;6238019;28;20132;-75
2020/12/18 11:02:04;;;;;;;11.25;7.65;;;4.40;95.70;;;;;;6238301;28;20042;-75
2020/12/18 11:05:06;;;;;;;10.98;8.82;;;4.40;95.70;;;;;;6234705;28;20063;-75
2020/12/18 11:08:08;;;;;;;13.93;8.93;;;4.40;95.70;;;;;;6241073;28;20414;-75
2020/12/18 11:11:12;;;;;;;13.45;9.00;;;4.30;95.70;;;;;;6242750;28;20037;-75
2020/12/18 11:14:14;;;;;;;17.63;8.32;;;4.30;96.00;;;;;;6238029;28;20049;-75
2020/12/18 11:17:16;;;;;;;22.55;10.20;;;4.30;96.20;;;;;;6235992;28;20183;-75
2020/12/18 11:20:18;;;;;;;20.42;8.57;;;4.40;96.40;;;;;;6237889;28;20133;-75
2020/12/18 11:23:19;;;;;;;18.27;8.82;;;4.60;96.50;;;;;;6235834;28;20050;-75
2020/12/18 11:26:20;;;;;;;26.90;9.43;;;4.70;96.40;;;;;;6234918;28;20060;-76
2020/12/18 11:29:22;;;;;;;16.35;9.05;;;4.90;96.20;;;;;;6242963;28;20063;-75
2020/12/18 11:32:23;;;;;;;19.20;8.60;;;4.90;96.00;;;;;;6238692;28;20598;-76
2020/12/18 11:35:25;;;;;;;31.77;9.50;;;4.90;96.20;;;;;;6242681;28;20528;-76
2020/12/18 11:38:27;;;;;;;10.32;8.35;;;5.10;96.10;;;;;;6240036;28;20054;-75
2020/12/18 11:41:28;;;;;;;23.05;8.65;;;5.20;96.20;;;;;;6235910;28;20068;-76
2020/12/18 11:44:30;;;;;;;18.88;7.30;;;5.20;95.70;;;;;;6237063;28;20081;-75
2020/12/18 11:47:32;;;;;;;9.15;6.85;;;5.30;95.90;;;;;;6232331;28;20050;-76
2020/12/18 11:50:34;;;;;;;31.88;7.55;;;5.30;95.80;;;;;;6239269;28;20446;-76
2020/12/18 11:53:36;;;;;;;23.58;7.40;;;5.40;95.50;;;;;;6239366;28;20045;-76
2020/12/18 11:56:37;;;;;;;26.83;6.57;;;5.40;95.60;;;;;;6237275;28;20558;-76
2020/12/18 11:59:39;;;;;;;10.48;5.78;;;5.40;95.60;;;;;;6231531;28;20052;-76
2020/12/18 12:02:40;;;;;;;11.93;6.45;;;5.40;95.70;;;;;;6241048;28;20077;-76
2020/12/18 12:05:43;;;;;;;11.55;6.50;;;5.40;95.30;;;;;;6236597;28;20068;-75
2020/12/18 12:08:45;;;;;;;14.40;8.02;;;5.50;95.30;;;;;;6240778;28;20045;-75
2020/12/18 12:11:46;;;;;;;17.25;7.35;;;5.60;95.30;;;;;;6236215;28;20636;-75
2020/12/18 12:14:47;;;;;;;11.50;8.13;;;5.50;95.20;;;;;;6236662;28;20404;-75
2020/12/18 12:17:49;;;;;;;11.00;6.60;;;5.50;95.60;;;;;;6233705;28;20136;-75
2020/12/18 12:20:51;;;;;;;10.85;8.15;;;5.60;95.60;;;;;;6229512;28;20042;-77
2020/12/18 12:23:52;;;;;;;20.17;18.00;;;5.60;95.70;;;;;;6236170;28;20041;-77
2020/12/18 12:26:54;;;;;;;16.23;9.80;;;5.70;95.50;;;;;;6238132;28;20411;-76
2020/12/18 12:29:55;;;;;;;11.40;7.97;;;5.70;95.00;;;;;;6228652;28;20073;-75
2020/12/18 12:32:56;;;;;;;32.58;23.10;;;5.70;95.10;;;;;;6233420;28;20488;-76
2020/12/18 12:35:59;;;;;;;16.63;9.10;;;5.70;95.00;;;;;;6236118;28;20046;-76
2020/12/18 12:39:01;;;;;;;18.20;10.70;;;5.70;95.10;;;;;;6240237;28;20059;-75
2020/12/18 12:42:03;;;;;;;26.45;13.05;;;5.60;94.90;;;;;;6237991;28;20046;-77
2020/12/18 12:45:05;;;;;;;31.48;17.35;;;5.60;94.90;;;;;;6233671;28;20041;-75
2020/12/18 12:48:06;;;;;;;19.42;12.32;;;5.60;95.20;;;;;;6242048;28;20053;-75
2020/12/18 12:51:08;;;;;;;61.38;41.13;;;5.60;95.20;;;;;;6238223;28;20052;-76
2020/12/18 12:54:10;;;;;;;29.98;12.43;;;5.60;95.10;;;;;;6229669;28;20396;-76
2020/12/18 12:57:11;;;;;;;18.17;11.82;;;5.50;95.30;;;;;;6239636;28;20045;-76
2020/12/18 13:00:13;;;;;;;24.88;13.65;;;5.50;95.40;;;;;;6235150;28;20539;-76
2020/12/18 13:03:14;;;;;;;24.65;15.43;;;5.50;95.60;;;;;;6234676;28;20038;-76
2020/12/18 13:06:22;;;;;;;37.80;16.15;;;5.50;95.60;;;;;;6232636;28;20100;-76
2020/12/18 13:09:23;;;;;;;32.97;18.67;;;5.50;95.90;;;;;;6234245;28;20057;-76
2020/12/18 13:12:25;;;;;;;32.20;19.02;;;5.50;95.90;;;;;;6232521;28;20095;-75
2020/12/18 13:15:26;;;;;;;31.50;16.67;;;5.50;96.10;;;;;;6284177;23;20045;-77
2020/12/18 13:18:27;;;;;;;29.35;16.70;;;5.50;96.30;;;;;;6265170;28;20057;-76
2020/12/18 13:21:30;;;;;;;30.77;18.35;;;5.60;96.30;;;;;;6266916;28;20155;-77
2020/12/18 13:24:31;;;;;;;60.42;19.40;;;5.60;96.20;;;;;;6261986;28;20120;-77
2020/12/18 13:27:33;;;;;;;36.55;21.25;;;5.60;96.40;;;;;;6269791;28;20084;-77
2020/12/18 13:30:39;;;;;;;34.88;21.80;;;5.60;96.50;;;;;;6270192;28;20095;-77
2020/12/18 13:33:40;;;;;;;67.57;40.90;;;5.60;96.70;;;;;;6268928;28;20048;-77
2020/12/18 13:36:42;;;;;;;54.33;21.45;;;5.70;96.90;;;;;;6271544;28;20055;-77
2020/12/18 13:39:44;;;;;;;32.72;19.75;;;5.70;96.90;;;;;;6272960;28;20056;-77
2020/12/18 13:42:45;;;;;;;26.90;15.70;;;5.70;96.80;;;;;;6291019;28;20071;-77
2020/12/18 13:45:46;;;;;;;29.80;12.90;;;5.70;96.70;;;;;;6277689;28;20073;-76
2020/12/18 13:48:48;;;;;;;22.67;13.20;;;5.70;96.80;;;;;;6273360;28;20136;-76
2020/12/18 13:51:50;;;;;;;26.20;14.65;;;5.60;97.10;;;;;;6275556;28;20084;-77
2020/12/18 13:54:52;;;;;;;19.95;13.18;;;5.70;97.10;;;;;;6280722;28;20040;-77
2020/12/18 13:57:53;;;;;;;22.38;13.15;;;5.70;97.10;;;;;;6271809;28;20049;-77
2020/12/18 14:00:54;;;;;;;37.45;13.93;;;5.70;97.10;;;;;;6277264;28;20055;-79
2020/12/18 14:03:55;;;;;;;22.08;15.55;;;5.60;97.00;;;;;;6271471;28;20041;-78
2020/12/18 14:06:59;;;;;;;27.15;15.70;;;5.50;97.10;;;;;;6270944;28;20157;-77
2020/12/18 14:10:00;;;;;;;36.75;12.70;;;5.40;97.60;;;;;;6270762;28;20048;-77
2020/12/18 14:13:02;;;;;;;70.63;16.48;;;5.30;97.90;;;;;;6275943;28;20127;-77
2020/12/18 14:16:07;;;;;;;39.50;15.02;;;5.30;97.80;;;;;;6275398;28;20132;-77
2020/12/18 14:19:08;;;;;;;49.08;20.48;;;5.20;98.20;;;;;;6275718;28;20049;-77
2020/12/18 14:22:10;;;;;;;47.40;19.38;;;5.30;99.60;;;;;;6275890;28;20045;-78
2020/12/18 14:25:12;;;;;;;31.77;12.60;;;5.80;99.90;;;;;;6275213;28;20045;-77
2020/12/18 14:28:13;;;;;;;23.33;12.93;;;5.70;99.10;;;;;;6275342;28;20049;-77
2020/12/18 14:31:16;;;;;;;62.40;17.58;;;5.50;98.90;;;;;;6274441;28;20470;-77
2020/12/18 14:34:17;;;;;;;67.68;17.08;;;5.40;99.20;;;;;;6275640;28;20080;-78
2020/12/18 14:37:19;;;;;;;48.55;15.43;;;5.30;99.20;;;;;;6275503;28;20462;-78
2020/12/18 14:40:21;;;;;;;31.95;15.88;;;5.30;98.80;;;;;;6274840;28;20049;-77
2020/12/18 14:43:22;;;;;;;36.85;17.20;;;5.30;99.00;;;;;;6274840;28;20045;-77
2020/12/18 14:46:25;;;;;;;27.10;16.85;;;5.20;99.10;;;;;;6278415;28;20040;-78
2020/12/18 14:49:27;;;;;;;38.15;16.65;;;5.30;99.40;;;;;;6278258;28;20053;-77
2020/12/18 14:52:29;;;;;;;35.90;15.43;;;5.50;99.80;;;;;;6275101;28;20128;-77
2020/12/18 14:55:30;;;;;;;30.02;15.40;;;5.60;99.20;;;;;;6275682;28;20079;-78
2020/12/18 14:58:32;;;;;;;20.30;11.85;;;5.70;99.90;;;;;;6275833;28;20106;-77
2020/12/18 15:01:33;;;;;;;16.40;11.85;;;6.20;99.90;;;;;;6277680;28;20056;-77
2020/12/18 15:04:36;;;;;;;12.23;8.63;;;6.80;99.40;;;;;;6277824;28;20055;-77
2020/12/18 15:07:38;;;;;;;16.73;9.10;;;6.90;97.60;;;;;;6294270;28;20032;-78
2020/12/18 15:10:39;;;;;;;23.60;12.55;;;6.90;96.90;;;;;;6305381;28;20080;-77
2020/12/18 15:13:41;;;;;;;20.90;10.82;;;6.50;96.50;;;;;;6305383;28;20045;-77
2020/12/18 15:16:42;;;;;;;28.30;11.80;;;6.10;97.00;;;;;;6304933;28;20053;-77
2020/12/18 15:19:44;;;;;;;13.98;10.65;;;6.20;97.20;;;;;;6304855;28;20044;-77
2020/12/18 15:22:47;;;;;;;19.88;15.30;;;6.30;97.80;;;;;;6304017;28;20053;-78
2020/12/18 15:25:49;;;;;;;25.48;12.20;;;6.40;97.00;;;;;;6300551;28;20073;-77
2020/12/18 15:28:50;;;;;;;25.58;12.45;;;6.20;97.00;;;;;;6277791;28;20140;-77
2020/12/18 15:31:51;;;;;;;23.95;13.07;;;5.90;97.20;;;;;;6275043;28;20072;-77
2020/12/18 15:34:52;;;;;;;24.55;11.30;;;5.70;97.60;;;;;;6274899;28;20479;-77
2020/12/18 15:37:55;;;;;;;34.67;13.60;;;5.40;97.70;;;;;;6276008;28;20101;-77
2020/12/18 15:40:57;;;;;;;16.35;12.52;;;5.20;98.10;;;;;;6279831;28;20140;-78
2020/12/18 15:43:58;;;;;;;45.30;13.52;;;5.00;98.30;;;;;;6262163;28;20399;-77